Time;durP1;ratioP1;P1;durP2;ratioP2;P2;SDS_P1;SDS_P2;PMS_P1;PMS_P2;Temp;Humidity;BMP_temperature;BMP_pressure;BME280_temperature;BME280_humidity;BME280_pressure;Samples;Min_cycle;Max_cycle;Signal;HPM_P1;HPM_P2
2023/02/21 02:14:42;;;;;;;19.17;4.88;;;9.80;99.90;;;;;;5007292;28;20057;-68
2023/02/21 02:17:28;;;;;;;19.35;4.93;;;9.80;99.90;;;;;;5006094;28;20081;-64
2023/02/21 02:20:28;;;;;;;18.50;4.40;;;9.80;99.90;;;;;;5006488;28;20050;-64
2023/02/21 02:23:14;;;;;;;16.88;4.47;;;9.80;99.90;;;;;;5006704;28;20539;-64
2023/02/21 02:26:09;;;;;;;21.48;5.90;;;9.80;99.90;;;;;;5010566;28;20046;-63
2023/02/21 02:29:05;;;;;;;8.93;3.20;;;9.80;99.90;;;;;;5006011;28;20049;-77
2023/02/21 02:31:46;;;;;;;9.32;3.25;;;9.70;99.90;;;;;;5006749;28;20038;-71
2023/02/21 02:34:20;;;;;;;16.17;4.80;;;9.70;99.90;;;;;;5006957;28;20068;-70
2023/02/21 02:36:57;;;;;;;7.70;3.38;;;9.70;99.90;;;;;;5005506;28;20133;-74
2023/02/21 02:39:38;;;;;;;17.10;5.28;;;9.70;99.90;;;;;;5008656;28;20415;-64
2023/02/21 02:42:24;;;;;;;9.05;3.78;;;9.70;99.90;;;;;;5007240;28;20049;-64
2023/02/21 02:44:56;;;;;;;17.48;5.40;;;9.70;99.90;;;;;;4998946;28;20053;-65
2023/02/21 02:47:33;;;;;;;16.83;5.00;;;9.70;99.90;;;;;;5025013;28;20038;-64
2023/02/21 02:50:00;;;;;;;13.73;4.35;;;9.70;99.90;;;;;;5017558;28;20462;-66
2023/02/21 02:52:26;;;;;;;11.45;3.33;;;9.70;99.90;;;;;;5005744;28;20060;-71
2023/02/21 02:55:04;;;;;;;10.20;2.97;;;9.70;99.90;;;;;;5021812;28;20057;-64
2023/02/21 02:57:39;;;;;;;7.85;2.25;;;9.70;99.90;;;;;;5007367;28;20393;-64
2023/02/21 03:00:09;;;;;;;13.48;3.83;;;9.70;99.90;;;;;;5011566;28;20167;-64
2023/02/21 03:02:38;;;;;;;24.27;4.85;;;9.70;99.90;;;;;;5009696;28;20071;-74
2023/02/21 03:05:26;;;;;;;18.40;4.00;;;9.60;99.90;;;;;;5011127;28;20056;-64
2023/02/21 03:07:52;;;;;;;16.83;4.82;;;9.60;99.90;;;;;;5010530;28;20077;-65
2023/02/21 03:10:44;;;;;;;22.17;5.75;;;9.60;99.90;;;;;;5010218;28;20080;-64
2023/02/21 03:13:13;;;;;;;14.27;4.15;;;9.60;99.90;;;;;;5011194;28;20054;-64
2023/02/21 03:15:54;;;;;;;17.65;3.92;;;9.50;99.90;;;;;;5009343;28;20420;-81
2023/02/21 03:18:46;;;;;;;9.73;3.17;;;9.50;99.90;;;;;;5015148;28;20030;-65
2023/02/21 03:21:21;;;;;;;12.73;4.15;;;9.50;99.90;;;;;;5010506;28;20512;-64
2023/02/21 03:23:50;;;;;;;16.13;4.63;;;9.50;99.90;;;;;;5009021;28;20046;-64
2023/02/21 03:26:17;;;;;;;15.73;4.20;;;9.50;99.90;;;;;;5023315;28;20041;-64
2023/02/21 03:28:44;;;;;;;11.40;3.75;;;9.50;99.90;;;;;;5024957;28;20050;-68
2023/02/21 03:31:13;;;;;;;16.02;5.10;;;9.50;99.90;;;;;;5010804;28;20411;-80
2023/02/21 03:33:40;;;;;;;17.40;5.00;;;9.50;99.90;;;;;;5012698;28;20483;-74
2023/02/21 03:36:08;;;;;;;22.88;6.55;;;9.50;99.90;;;;;;5014995;28;20049;-64
2023/02/21 03:38:34;;;;;;;16.70;5.07;;;9.60;99.90;;;;;;5013275;28;20037;-83
2023/02/21 03:41:00;;;;;;;15.63;4.43;;;9.60;99.90;;;;;;5016248;28;20084;-79
2023/02/21 03:43:25;;;;;;;10.75;3.13;;;9.60;99.90;;;;;;5010221;28;20115;-64
2023/02/21 03:45:51;;;;;;;18.42;6.28;;;9.60;99.90;;;;;;5008483;28;20065;-72
2023/02/21 03:48:17;;;;;;;19.48;6.75;;;9.60;99.90;;;;;;5010482;28;20077;-64
2023/02/21 03:50:43;;;;;;;21.88;6.65;;;9.60;99.90;;;;;;5018374;28;20034;-64
2023/02/21 03:53:09;;;;;;;18.92;6.32;;;9.60;99.90;;;;;;5009876;28;20503;-79
2023/02/21 03:55:35;;;;;;;16.33;6.28;;;9.60;99.90;;;;;;5009483;28;20115;-64
2023/02/21 03:58:01;;;;;;;19.65;6.40;;;9.60;99.90;;;;;;5008563;28;20140;-64
2023/02/21 04:00:27;;;;;;;12.80;5.05;;;9.60;99.90;;;;;;5008470;28;20184;-64
2023/02/21 04:02:52;;;;;;;17.92;5.60;;;9.70;99.90;;;;;;5008364;28;20049;-86
2023/02/21 04:05:18;;;;;;;18.15;6.00;;;9.60;99.90;;;;;;5010202;28;20073;-64
2023/02/21 04:07:44;;;;;;;6.50;3.53;;;9.60;99.90;;;;;;5008087;28;20046;-89
2023/02/21 04:10:10;;;;;;;23.90;6.50;;;9.60;99.90;;;;;;5016552;28;20128;-64
2023/02/21 04:12:36;;;;;;;16.75;6.22;;;9.60;99.90;;;;;;5010140;28;20130;-64
2023/02/21 04:15:02;;;;;;;12.27;3.75;;;9.60;99.90;;;;;;5008928;28;20042;-64
2023/02/21 04:17:28;;;;;;;18.70;5.80;;;9.60;99.90;;;;;;5009828;28;20392;-78
2023/02/21 04:19:53;;;;;;;19.15;6.55;;;9.60;99.90;;;;;;5007676;28;20042;-78
2023/02/21 04:22:19;;;;;;;19.75;6.13;;;9.60;99.90;;;;;;5029348;28;20179;-81
2023/02/21 04:24:46;;;;;;;18.13;5.93;;;9.60;99.90;;;;;;5008585;28;20120;-64
2023/02/21 04:27:13;;;;;;;19.85;7.20;;;9.60;99.90;;;;;;5009543;28;20045;-64
2023/02/21 04:29:39;;;;;;;22.00;6.63;;;9.60;99.90;;;;;;5006928;28;20050;-64
2023/02/21 04:32:04;;;;;;;14.57;5.90;;;9.60;99.90;;;;;;5008959;28;20455;-86
2023/02/21 04:34:30;;;;;;;9.68;3.83;;;9.60;99.90;;;;;;5008870;28;20053;-79
2023/02/21 04:36:56;;;;;;;13.02;4.10;;;9.60;99.90;;;;;;5007792;28;20046;-64
2023/02/21 04:39:21;;;;;;;19.35;6.43;;;9.60;99.90;;;;;;5009276;28;20140;-79
2023/02/21 04:41:47;;;;;;;25.63;7.38;;;9.60;99.90;;;;;;5008486;28;20064;-64
2023/02/21 04:44:13;;;;;;;16.02;4.97;;;9.60;99.90;;;;;;5011703;28;20460;-79
2023/02/21 04:46:39;;;;;;;18.58;5.18;;;9.50;99.90;;;;;;5021449;28;20068;-64
2023/02/21 04:49:04;;;;;;;20.80;4.50;;;9.60;99.90;;;;;;5008647;28;20096;-63
2023/02/21 04:51:30;;;;;;;22.65;5.93;;;9.50;99.90;;;;;;5007773;28;20521;-64
2023/02/21 04:53:56;;;;;;;24.50;4.45;;;9.50;99.90;;;;;;5019690;28;20459;-64
2023/02/21 04:56:26;;;;;;;12.38;2.75;;;9.50;99.90;;;;;;5009009;28;20050;-78
2023/02/21 04:58:52;;;;;;;14.73;4.15;;;9.50;99.90;;;;;;5006842;28;20136;-72
2023/02/21 05:01:19;;;;;;;12.77;3.33;;;9.50;99.90;;;;;;5009372;28;20152;-64
2023/02/21 05:03:45;;;;;;;15.40;5.32;;;9.50;99.90;;;;;;5013964;28;20054;-64
2023/02/21 05:06:17;;;;;;;18.55;5.07;;;9.50;99.90;;;;;;5008677;28;20463;-64
2023/02/21 05:08:43;;;;;;;15.23;3.85;;;9.50;99.90;;;;;;5007683;28;20042;-68
2023/02/21 05:11:09;;;;;;;9.10;2.90;;;9.40;99.90;;;;;;5007962;28;20034;-64
2023/02/21 05:13:34;;;;;;;18.42;5.15;;;9.40;99.90;;;;;;5009736;28;20048;-68
2023/02/21 05:16:00;;;;;;;15.88;4.90;;;9.40;99.90;;;;;;5006535;28;20034;-78
2023/02/21 05:18:27;;;;;;;26.00;5.85;;;9.40;99.90;;;;;;5008373;28;20049;-72
2023/02/21 05:20:54;;;;;;;16.50;5.90;;;9.40;99.90;;;;;;5005394;28;20061;-63
2023/02/21 05:23:32;;;;;;;18.08;5.55;;;9.40;99.90;;;;;;5008679;28;20459;-64
2023/02/21 05:26:02;;;;;;;23.17;6.90;;;9.40;99.90;;;;;;5007465;28;20443;-76
2023/02/21 05:28:28;;;;;;;;;;;9.40;99.90;;;;;;5008189;28;20095;-68
2023/02/21 05:30:54;;;;;;;11.10;3.88;;;9.40;99.90;;;;;;5008616;28;19925;-64
2023/02/21 05:33:20;;;;;;;18.90;6.15;;;9.40;99.90;;;;;;5018705;28;20078;-79
2023/02/21 05:35:47;;;;;;;9.93;4.13;;;9.40;99.90;;;;;;5009423;28;20034;-68
2023/02/21 05:38:14;;;;;;;19.55;6.65;;;9.40;99.90;;;;;;5005120;28;20133;-73
2023/02/21 05:40:39;;;;;;;19.38;6.57;;;9.40;99.90;;;;;;5022088;28;20042;-63
2023/02/21 05:43:05;;;;;;;14.82;5.15;;;9.40;99.90;;;;;;5015630;28;20459;-71
2023/02/21 05:45:31;;;;;;;26.17;8.27;;;9.40;99.90;;;;;;5015748;28;20030;-64
2023/02/21 05:47:59;;;;;;;21.58;7.70;;;9.40;99.90;;;;;;5020442;28;20068;-68
2023/02/21 05:50:28;;;;;;;20.30;8.20;;;9.40;99.90;;;;;;5017832;28;20037;-64
2023/02/21 05:52:56;;;;;;;26.88;8.95;;;9.40;99.90;;;;;;5006492;28;20489;-66
2023/02/21 05:55:21;;;;;;;21.20;9.30;;;9.30;99.90;;;;;;5012566;28;20046;-64
2023/02/21 05:57:47;;;;;;;24.25;9.23;;;9.40;99.90;;;;;;5011952;28;20061;-64
2023/02/21 06:00:25;;;;;;;4.30;2.83;;;9.30;99.90;;;;;;5015332;28;20045;-63
2023/02/21 06:02:51;;;;;;;24.52;9.40;;;9.30;99.90;;;;;;5030415;28;20062;-64
2023/02/21 06:05:18;;;;;;;22.60;9.95;;;9.30;99.90;;;;;;5015568;28;20430;-82
2023/02/21 06:07:45;;;;;;;15.40;6.25;;;9.30;99.90;;;;;;5018591;28;20045;-74
2023/02/21 06:10:10;;;;;;;24.38;9.68;;;9.30;99.90;;;;;;5012685;28;20050;-67
2023/02/21 06:12:36;;;;;;;27.45;8.85;;;9.30;99.90;;;;;;5006791;28;20111;-64
2023/02/21 06:15:06;;;;;;;20.75;7.03;;;9.30;99.90;;;;;;5007380;28;20049;-64
2023/02/21 06:17:32;;;;;;;22.13;9.60;;;9.30;99.90;;;;;;5019782;28;20139;-64
2023/02/21 06:19:58;;;;;;;22.25;9.80;;;9.30;99.90;;;;;;5022293;28;20049;-66
2023/02/21 06:22:24;;;;;;;26.05;10.38;;;9.20;99.90;;;;;;5006812;28;20052;-64
2023/02/21 06:24:50;;;;;;;26.17;8.90;;;9.30;99.90;;;;;;5006380;28;20366;-64
2023/02/21 06:27:15;;;;;;;23.27;9.60;;;9.30;99.90;;;;;;5018794;28;20063;-64
2023/02/21 06:29:41;;;;;;;24.52;9.18;;;9.30;99.90;;;;;;5008157;28;20168;-64
2023/02/21 06:32:07;;;;;;;27.77;10.13;;;9.30;99.90;;;;;;4991065;28;20532;-64
2023/02/21 06:34:32;;;;;;;21.15;8.48;;;9.30;99.90;;;;;;5023545;28;20119;-64
2023/02/21 06:36:58;;;;;;;22.08;10.95;;;9.30;99.90;;;;;;5012351;28;20042;-64
2023/02/21 06:39:24;;;;;;;21.08;9.70;;;9.20;99.90;;;;;;5011118;28;20048;-63
2023/02/21 06:41:50;;;;;;;28.23;9.95;;;9.20;99.90;;;;;;5009118;28;20128;-64
2023/02/21 06:44:16;;;;;;;27.90;9.57;;;9.30;99.90;;;;;;5011015;28;20058;-64
2023/02/21 06:46:42;;;;;;;19.52;7.72;;;9.20;99.90;;;;;;5010103;28;20042;-64
2023/02/21 06:49:08;;;;;;;29.63;10.27;;;9.20;99.90;;;;;;5012233;28;20068;-64
2023/02/21 06:51:39;;;;;;;26.45;11.50;;;9.20;99.90;;;;;;5009759;28;20404;-65
2023/02/21 06:54:09;;;;;;;25.88;9.40;;;9.20;99.90;;;;;;5010930;28;20065;-66
2023/02/21 06:56:35;;;;;;;13.25;5.47;;;9.20;99.90;;;;;;5010260;28;20132;-64
2023/02/21 06:59:02;;;;;;;19.52;9.07;;;9.10;99.90;;;;;;5016107;28;20570;-65
2023/02/21 07:01:28;;;;;;;15.23;6.20;;;9.20;99.90;;;;;;5015064;28;20136;-64
2023/02/21 07:03:56;;;;;;;36.42;11.40;;;9.20;99.90;;;;;;5010357;28;20042;-64
2023/02/21 07:06:22;;;;;;;24.77;10.43;;;9.20;99.90;;;;;;5010934;28;20117;-64
2023/02/21 07:08:48;;;;;;;17.75;7.25;;;9.10;99.90;;;;;;5013592;28;20519;-64
2023/02/21 07:11:15;;;;;;;22.55;7.85;;;9.20;99.90;;;;;;5010487;28;20069;-64
2023/02/21 07:13:45;;;;;;;24.88;11.23;;;9.20;99.90;;;;;;5009644;28;20097;-65
2023/02/21 07:16:13;;;;;;;29.70;11.82;;;9.20;99.90;;;;;;5008166;28;20100;-64
2023/02/21 07:18:38;;;;;;;29.70;10.10;;;9.20;99.90;;;;;;5011161;28;20059;-64
2023/02/21 07:21:04;;;;;;;15.95;7.65;;;9.20;99.90;;;;;;5021196;28;20480;-64
2023/02/21 07:23:30;;;;;;;25.13;9.50;;;9.20;99.90;;;;;;5010966;28;20042;-73
2023/02/21 07:25:56;;;;;;;19.67;8.02;;;9.20;99.90;;;;;;5009017;28;20409;-65
2023/02/21 07:28:22;;;;;;;27.83;10.20;;;9.20;99.90;;;;;;5010182;28;20046;-70
2023/02/21 07:30:47;;;;;;;20.48;8.60;;;9.20;99.90;;;;;;5013899;28;20033;-65
2023/02/21 07:33:13;;;;;;;29.92;10.85;;;9.20;99.90;;;;;;5010773;28;20045;-64
2023/02/21 07:35:39;;;;;;;12.93;6.00;;;9.20;99.90;;;;;;5010376;28;20042;-65
2023/02/21 07:38:05;;;;;;;35.55;10.45;;;9.20;99.90;;;;;;5007350;28;20065;-76
2023/02/21 07:40:30;;;;;;;17.63;7.25;;;9.20;99.90;;;;;;5013771;28;20042;-64
2023/02/21 07:42:56;;;;;;;22.17;8.48;;;9.20;99.90;;;;;;5009035;28;20046;-65
2023/02/21 07:45:22;;;;;;;26.58;8.95;;;9.20;99.90;;;;;;5009696;28;20046;-63
2023/02/21 07:47:49;;;;;;;14.07;5.22;;;9.20;99.90;;;;;;5008676;28;20042;-81
2023/02/21 07:50:16;;;;;;;22.60;8.02;;;9.30;99.90;;;;;;5008725;28;20049;-73
2023/02/21 07:52:42;;;;;;;21.70;7.80;;;9.30;99.90;;;;;;5009573;28;20046;-64
2023/02/21 07:55:08;;;;;;;22.75;8.52;;;9.30;99.90;;;;;;5008555;28;20423;-64
2023/02/21 07:57:33;;;;;;;31.45;13.02;;;9.30;99.90;;;;;;5010043;28;20053;-69
2023/02/21 07:59:59;;;;;;;22.30;9.35;;;9.30;99.90;;;;;;5008610;28;20037;-75
2023/02/21 08:02:25;;;;;;;19.33;9.43;;;9.30;99.90;;;;;;5014444;28;20167;-64
2023/02/21 08:04:52;;;;;;;27.17;10.98;;;9.30;99.90;;;;;;5020366;28;20060;-64
2023/02/21 08:07:18;;;;;;;27.20;9.10;;;9.30;99.90;;;;;;5010577;28;20472;-73
2023/02/21 08:09:44;;;;;;;27.50;9.80;;;9.30;99.90;;;;;;5011323;28;20500;-64
2023/02/21 08:12:09;;;;;;;27.50;11.27;;;9.30;99.90;;;;;;4998036;28;20056;-64
2023/02/21 08:14:35;;;;;;;21.95;10.10;;;9.30;99.90;;;;;;5013859;28;20044;-64
2023/02/21 08:17:01;;;;;;;24.90;9.73;;;9.30;99.90;;;;;;5017252;28;20515;-64
2023/02/21 08:19:26;;;;;;;33.08;12.75;;;9.40;99.90;;;;;;5019325;28;20093;-65
2023/02/21 08:21:52;;;;;;;24.73;10.27;;;9.40;99.90;;;;;;5020079;28;20046;-64
2023/02/21 08:24:18;;;;;;;30.17;10.57;;;9.40;99.90;;;;;;5021237;28;20574;-64
2023/02/21 08:26:44;;;;;;;27.33;11.88;;;9.40;99.90;;;;;;5009272;28;20042;-64
2023/02/21 08:29:11;;;;;;;21.08;10.00;;;9.40;99.90;;;;;;5008380;28;20042;-64
2023/02/21 08:31:43;;;;;;;28.40;11.07;;;9.40;99.90;;;;;;5013976;28;20054;-70
2023/02/21 08:34:09;;;;;;;37.40;15.02;;;9.40;99.90;;;;;;5019512;28;20104;-64
2023/02/21 08:36:38;;;;;;;34.65;12.65;;;9.40;99.90;;;;;;5011840;28;20418;-64
2023/02/21 08:39:06;;;;;;;23.20;10.60;;;9.50;99.90;;;;;;5024644;28;20041;-64
2023/02/21 08:41:41;;;;;;;30.98;13.52;;;9.50;99.90;;;;;;5017840;28;20115;-65
2023/02/21 08:44:08;;;;;;;26.70;10.48;;;9.50;99.90;;;;;;5011375;28;20057;-64
2023/02/21 08:46:35;;;;;;;34.65;11.63;;;9.60;99.90;;;;;;5012387;28;20447;-64
2023/02/21 08:49:02;;;;;;;19.50;9.23;;;9.60;99.90;;;;;;5017123;28;20397;-64
2023/02/21 08:51:29;;;;;;;23.77;12.32;;;9.60;99.90;;;;;;5010962;28;20042;-64
2023/02/21 08:53:55;;;;;;;34.15;13.65;;;9.60;99.90;;;;;;5013214;28;20057;-65
2023/02/21 08:56:23;;;;;;;29.80;12.55;;;9.60;99.90;;;;;;5004730;28;20061;-64
2023/02/21 08:58:48;;;;;;;26.48;10.93;;;9.70;99.90;;;;;;5023203;28;20084;-75
2023/02/21 09:01:15;;;;;;;31.38;13.70;;;9.70;99.90;;;;;;5011842;28;20073;-66
2023/02/21 09:03:41;;;;;;;23.15;10.85;;;9.70;99.90;;;;;;5009587;28;20131;-73
2023/02/21 09:06:08;;;;;;;29.25;12.68;;;9.70;99.90;;;;;;5013156;28;20084;-64
2023/02/21 09:08:35;;;;;;;18.40;7.63;;;9.70;99.90;;;;;;5020341;28;20085;-64
2023/02/21 09:11:02;;;;;;;30.75;14.45;;;9.80;99.90;;;;;;5010408;28;20052;-72
2023/02/21 09:13:29;;;;;;;25.52;12.60;;;9.80;99.90;;;;;;5013767;28;20582;-68
2023/02/21 09:15:55;;;;;;;30.67;12.50;;;9.90;99.90;;;;;;5008722;28;20046;-65
2023/02/21 09:18:22;;;;;;;27.98;12.05;;;9.90;99.90;;;;;;5006403;28;20053;-65
2023/02/21 09:20:52;;;;;;;26.00;11.88;;;9.90;99.90;;;;;;5008148;28;20436;-64
2023/02/21 09:23:19;;;;;;;26.35;11.52;;;9.90;99.90;;;;;;5006080;28;20042;-64
2023/02/21 09:25:48;;;;;;;30.90;14.52;;;10.00;99.90;;;;;;5007169;28;20053;-72
2023/02/21 09:28:14;;;;;;;30.05;13.15;;;10.00;99.90;;;;;;5009478;28;20068;-64
2023/02/21 09:30:40;;;;;;;20.95;12.55;;;10.00;99.90;;;;;;5012320;28;20042;-64
2023/02/21 09:33:06;;;;;;;28.63;13.35;;;10.00;99.90;;;;;;5012096;28;20153;-64
2023/02/21 09:35:32;;;;;;;26.95;12.50;;;10.00;99.90;;;;;;5006110;28;20092;-64
2023/02/21 09:37:59;;;;;;;24.73;12.63;;;10.00;99.90;;;;;;5014886;28;20487;-64
2023/02/21 09:40:40;;;;;;;25.05;13.20;;;10.00;99.90;;;;;;5015998;28;20046;-67
2023/02/21 09:43:17;;;;;;;26.02;13.07;;;10.00;99.90;;;;;;5014823;28;20115;-65
2023/02/21 09:45:44;;;;;;;21.25;12.82;;;10.00;99.90;;;;;;5013189;28;20050;-73
2023/02/21 09:48:16;;;;;;;25.52;11.75;;;10.00;99.90;;;;;;5010852;28;20406;-65
2023/02/21 09:50:57;;;;;;;19.40;9.63;;;10.00;99.90;;;;;;5011650;28;20046;-64
2023/02/21 09:53:29;;;;;;;28.95;13.23;;;10.10;99.90;;;;;;5015333;28;20081;-65
2023/02/21 09:56:24;;;;;;;24.77;10.02;;;10.10;99.90;;;;;;5015829;28;20053;-79
2023/02/21 09:58:50;;;;;;;18.13;11.02;;;10.10;99.90;;;;;;5002346;28;20798;-64
2023/02/21 10:01:53;;;;;;;27.58;12.60;;;10.10;99.90;;;;;;5007722;28;20045;-64
2023/02/21 10:04:43;;;;;;;26.10;12.40;;;10.20;99.90;;;;;;5014665;28;20126;-74
2023/02/21 10:07:17;;;;;;;23.48;12.65;;;10.10;99.90;;;;;;5010412;28;20042;-65
2023/02/21 10:09:51;;;;;;;23.10;10.35;;;10.10;99.90;;;;;;5012232;28;20069;-65
2023/02/21 10:12:20;;;;;;;18.15;11.07;;;10.10;99.90;;;;;;5014588;28;20562;-64
2023/02/21 10:15:03;;;;;;;26.88;11.98;;;10.20;99.90;;;;;;5011555;28;20523;-64
2023/02/21 10:17:39;;;;;;;19.67;10.80;;;10.20;99.90;;;;;;5021772;28;20072;-65
2023/02/21 10:20:13;;;;;;;31.67;12.95;;;10.20;99.90;;;;;;5024807;28;20045;-64
2023/02/21 10:22:42;;;;;;;18.48;10.57;;;10.20;99.90;;;;;;5011484;28;20061;-65
2023/02/21 10:25:23;;;;;;;29.48;13.00;;;10.20;99.90;;;;;;5013174;28;20100;-66
2023/02/21 10:27:52;;;;;;;22.02;11.45;;;10.20;99.90;;;;;;5013612;28;20048;-65
2023/02/21 10:30:36;;;;;;;25.42;12.45;;;10.30;99.90;;;;;;5012205;28;20052;-64
2023/02/21 10:33:05;;;;;;;21.98;10.82;;;10.30;99.90;;;;;;5012839;28;20412;-64
2023/02/21 10:35:32;;;;;;;30.35;12.90;;;10.30;99.90;;;;;;5009606;28;20046;-74
2023/02/21 10:38:01;;;;;;;30.50;12.20;;;10.30;99.90;;;;;;5013418;28;20053;-64
2023/02/21 10:40:33;;;;;;;26.02;10.80;;;10.30;99.90;;;;;;5013651;28;20030;-81
2023/02/21 10:43:22;;;;;;;25.63;12.15;;;10.30;99.90;;;;;;5021631;28;20477;-82
2023/02/21 10:45:57;;;;;;;26.00;11.85;;;10.30;99.90;;;;;;5009517;28;20053;-64
2023/02/21 10:48:33;;;;;;;23.75;11.30;;;10.30;99.90;;;;;;5014726;28;20045;-64
2023/02/21 10:51:11;;;;;;;27.33;11.95;;;10.30;99.90;;;;;;5017404;28;20092;-64
2023/02/21 10:53:45;;;;;;;29.13;13.18;;;10.40;99.90;;;;;;5024731;28;20053;-65
2023/02/21 10:56:14;;;;;;;23.45;11.23;;;10.30;99.90;;;;;;5026309;28;20202;-78
2023/02/21 10:58:47;;;;;;;22.80;9.70;;;10.40;99.90;;;;;;5015851;28;20099;-64
2023/02/21 11:01:21;;;;;;;24.02;11.52;;;10.30;99.90;;;;;;5014638;28;20045;-64
2023/02/21 11:03:54;;;;;;;34.05;12.00;;;10.30;99.90;;;;;;5021659;28;20370;-64
2023/02/21 11:06:27;;;;;;;21.90;11.43;;;10.30;99.90;;;;;;5011674;28;20955;-65
2023/02/21 11:08:53;;;;;;;24.77;12.32;;;10.40;99.90;;;;;;5012194;28;20057;-64
2023/02/21 11:11:40;;;;;;;19.98;12.05;;;10.40;99.90;;;;;;5020958;28;20042;-64
2023/02/21 11:14:17;;;;;;;25.05;11.35;;;10.30;99.90;;;;;;5014664;28;20045;-64
2023/02/21 11:16:43;;;;;;;23.67;11.90;;;10.40;99.90;;;;;;5012536;28;20053;-64
2023/02/21 11:19:13;;;;;;;20.58;12.43;;;10.40;99.90;;;;;;5011572;28;20045;-64
2023/02/21 11:21:41;;;;;;;24.77;12.32;;;10.40;99.90;;;;;;5010208;28;20046;-74
2023/02/21 11:24:10;;;;;;;18.52;10.98;;;10.40;99.90;;;;;;5015501;28;20077;-64
2023/02/21 11:26:49;;;;;;;27.35;12.85;;;10.40;99.90;;;;;;5019688;28;20126;-67
2023/02/21 11:29:24;;;;;;;24.90;13.23;;;10.40;99.90;;;;;;5029733;28;20042;-79
2023/02/21 11:31:51;;;;;;;19.52;11.85;;;10.40;99.90;;;;;;5018609;28;20057;-64
2023/02/21 11:34:18;;;;;;;23.58;12.00;;;10.40;99.90;;;;;;5011263;28;20069;-85
2023/02/21 11:36:48;;;;;;;23.55;10.88;;;10.40;99.90;;;;;;5009239;28;20105;-65
2023/02/21 11:39:32;;;;;;;26.10;11.75;;;10.40;99.90;;;;;;5013207;28;20042;-64
2023/02/21 11:42:03;;;;;;;27.92;11.85;;;10.40;99.90;;;;;;5016789;28;20416;-80
2023/02/21 11:44:34;;;;;;;24.67;10.73;;;10.50;99.90;;;;;;5012446;28;20132;-65
2023/02/21 11:47:20;;;;;;;32.58;12.35;;;10.50;99.90;;;;;;5036628;28;20177;-64
2023/02/21 11:50:25;;;;;;;21.85;11.30;;;10.50;99.90;;;;;;5013091;28;20480;-64
2023/02/21 11:52:54;;;;;;;25.65;13.00;;;10.50;99.90;;;;;;5017875;28;20488;-83
2023/02/21 11:55:23;;;;;;;18.67;11.18;;;10.50;99.90;;;;;;5011210;28;20096;-64
2023/02/21 11:58:23;;;;;;;34.83;14.02;;;10.40;99.90;;;;;;5005957;28;20054;-65
2023/02/21 12:01:05;;;;;;;20.30;9.93;;;10.40;99.90;;;;;;5009378;28;20495;-64
2023/02/21 12:03:50;;;;;;;22.05;10.38;;;10.40;99.90;;;;;;5011741;28;20054;-78
2023/02/21 12:06:45;;;;;;;24.55;10.93;;;10.40;99.90;;;;;;5016193;28;20046;-64
2023/02/21 12:09:35;;;;;;;21.65;10.77;;;10.40;99.90;;;;;;4983785;28;20492;-64
2023/02/21 12:12:14;;;;;;;;;;;10.40;99.90;;;;;;5009894;28;20046;-64
2023/02/21 12:14:51;;;;;;;32.47;11.55;;;10.40;99.90;;;;;;5022006;28;20276;-66
2023/02/21 12:17:34;;;;;;;26.42;10.82;;;10.40;99.90;;;;;;5009072;28;20046;-68
2023/02/21 12:20:18;;;;;;;28.42;11.45;;;10.40;99.90;;;;;;5008073;28;20049;-64
2023/02/21 12:22:43;;;;;;;25.45;10.80;;;10.40;99.90;;;;;;5023413;28;20045;-64
2023/02/21 12:25:30;;;;;;;23.77;10.55;;;10.40;99.90;;;;;;5009105;28;20049;-64
2023/02/21 12:28:36;;;;;;;23.55;10.02;;;10.40;99.90;;;;;;5007077;28;20042;-64
2023/02/21 12:31:22;;;;;;;19.55;9.30;;;10.40;99.90;;;;;;4952343;28;20417;-64
2023/02/21 12:34:13;;;;;;;23.17;9.68;;;10.50;99.90;;;;;;4960264;28;20050;-64
2023/02/21 12:36:57;;;;;;;;;;;10.50;99.90;;;;;;4999376;28;20504;-65
2023/02/21 12:39:50;;;;;;;27.83;9.63;;;10.60;99.90;;;;;;5017719;28;19921;-65
2023/02/21 12:42:32;;;;;;;31.60;10.32;;;10.70;99.90;;;;;;5019793;28;20053;-70
2023/02/21 12:45:16;;;;;;;24.15;9.55;;;10.80;99.90;;;;;;5009340;28;20500;-64
2023/02/21 12:48:13;;;;;;;17.40;8.57;;;10.80;99.90;;;;;;5012243;28;20077;-64
2023/02/21 12:50:42;;;;;;;23.77;9.52;;;10.80;99.90;;;;;;5009499;28;20053;-81
2023/02/21 12:53:31;;;;;;;21.92;9.10;;;10.80;99.90;;;;;;5021043;28;20041;-64
2023/02/21 12:56:08;;;;;;;19.90;10.32;;;10.80;99.90;;;;;;5015829;28;20096;-65
2023/02/21 12:58:36;;;;;;;18.05;10.48;;;10.80;99.90;;;;;;5014000;28;20420;-79
2023/02/21 13:01:17;;;;;;;24.05;10.05;;;10.80;99.90;;;;;;5011555;28;20050;-64
2023/02/21 13:03:57;;;;;;;19.73;10.80;;;10.80;99.90;;;;;;5027947;28;20093;-64
2023/02/21 13:06:30;;;;;;;21.07;10.30;;;10.80;99.90;;;;;;5013266;28;20050;-64
2023/02/21 13:09:12;;;;;;;21.17;9.57;;;10.80;99.90;;;;;;5008860;28;20042;-65
2023/02/21 13:11:56;;;;;;;22.08;10.77;;;10.80;99.90;;;;;;5011812;28;20081;-65
2023/02/21 13:14:57;;;;;;;25.45;10.88;;;10.90;99.90;;;;;;5012027;28;20038;-64
2023/02/21 13:17:25;;;;;;;20.75;9.73;;;11.00;99.90;;;;;;5015403;28;20056;-64
2023/02/21 13:20:05;;;;;;;24.40;10.90;;;11.00;99.90;;;;;;5010282;28;20329;-64
2023/02/21 13:22:56;;;;;;;22.05;11.10;;;11.00;99.90;;;;;;5012269;28;20200;-64
2023/02/21 13:25:36;;;;;;;21.13;11.25;;;11.00;99.90;;;;;;5014405;28;20052;-73
2023/02/21 13:28:15;;;;;;;23.20;11.05;;;11.10;99.90;;;;;;5012761;28;20145;-68
2023/02/21 13:30:56;;;;;;;31.05;11.15;;;11.10;99.90;;;;;;5018652;28;20056;-64
2023/02/21 13:33:42;;;;;;;25.75;11.45;;;11.10;99.90;;;;;;5012569;28;20069;-65
2023/02/21 13:36:28;;;;;;;19.88;8.05;;;11.10;99.90;;;;;;5021797;28;20037;-63
2023/02/21 13:39:15;;;;;;;25.58;8.60;;;11.20;99.90;;;;;;5015106;28;20415;-64
2023/02/21 13:41:46;;;;;;;24.23;9.02;;;11.20;99.90;;;;;;5007247;28;20057;-63
2023/02/21 13:44:31;;;;;;;17.60;8.48;;;11.10;99.90;;;;;;5010416;28;20045;-64
2023/02/21 13:47:31;;;;;;;16.23;8.48;;;11.10;99.90;;;;;;5009756;28;20045;-63
2023/02/21 13:50:38;;;;;;;19.70;9.40;;;11.10;99.90;;;;;;5001169;28;20128;-63
2023/02/21 13:53:22;;;;;;;16.88;8.90;;;11.00;99.90;;;;;;5015896;28;20057;-65
2023/02/21 13:56:06;;;;;;;19.67;8.95;;;11.10;99.90;;;;;;5019510;28;20054;-64
2023/02/21 13:58:37;;;;;;;24.38;9.70;;;11.00;99.90;;;;;;5008684;28;20037;-65
2023/02/21 14:01:18;;;;;;;13.40;8.10;;;11.10;99.90;;;;;;5010317;28;20340;-66
2023/02/21 14:03:44;;;;;;;19.38;9.35;;;11.00;99.90;;;;;;5010654;28;20048;-64
2023/02/21 14:06:09;;;;;;;19.55;10.00;;;11.00;99.90;;;;;;5017760;28;20414;-64
2023/02/21 14:08:48;;;;;;;24.10;9.30;;;11.00;99.90;;;;;;5019448;28;20117;-63
2023/02/21 14:11:15;;;;;;;16.42;9.63;;;11.00;99.90;;;;;;5004655;28;20045;-64
2023/02/21 14:13:45;;;;;;;18.27;10.10;;;11.10;99.90;;;;;;5017351;28;20124;-64
2023/02/21 14:16:21;;;;;;;19.95;9.50;;;11.20;99.90;;;;;;5005869;28;20104;-64
2023/02/21 14:19:30;;;;;;;23.05;9.32;;;11.10;99.90;;;;;;5006747;28;20054;-64
2023/02/21 14:22:10;;;;;;;21.52;9.73;;;11.10;99.90;;;;;;5006365;28;20165;-64
2023/02/21 14:24:38;;;;;;;;;;;11.20;99.90;;;;;;5006752;28;20041;-64
2023/02/21 14:27:23;;;;;;;26.80;10.77;;;11.20;99.90;;;;;;5007470;28;20059;-64
2023/02/21 14:30:11;;;;;;;21.85;10.27;;;11.30;99.90;;;;;;5007108;28;20083;-63
2023/02/21 14:32:43;;;;;;;18.70;10.18;;;11.30;99.90;;;;;;5006805;28;20095;-64
2023/02/21 14:35:33;;;;;;;26.52;10.65;;;11.30;99.90;;;;;;5007949;28;20046;-71
2023/02/21 14:38:05;;;;;;;21.17;9.35;;;11.30;99.90;;;;;;5018271;28;20547;-65
2023/02/21 14:40:33;;;;;;;19.67;9.60;;;11.30;99.90;;;;;;5014387;28;20049;-65
2023/02/21 14:43:20;;;;;;;18.15;10.18;;;11.20;99.90;;;;;;5012072;28;20093;-63
2023/02/21 14:46:13;;;;;;;22.77;10.15;;;11.20;99.90;;;;;;5016672;28;20045;-64
2023/02/21 14:49:07;;;;;;;16.52;9.13;;;11.10;99.90;;;;;;5009516;28;20400;-73
2023/02/21 14:52:00;;;;;;;24.27;10.15;;;11.10;99.90;;;;;;5011810;28;20061;-64
2023/02/21 14:54:43;;;;;;;21.45;9.88;;;11.10;99.90;;;;;;5006262;28;20081;-64
2023/02/21 14:57:24;;;;;;;18.77;9.80;;;11.00;99.90;;;;;;5011813;28;20120;-64
2023/02/21 15:00:17;;;;;;;19.75;9.52;;;10.90;99.90;;;;;;5010310;28;20471;-64
2023/02/21 15:03:07;;;;;;;19.13;9.68;;;10.90;99.90;;;;;;5015505;28;20046;-64
2023/02/21 15:05:43;;;;;;;18.52;8.73;;;10.90;99.90;;;;;;5011136;28;20137;-64
2023/02/21 15:08:24;;;;;;;22.60;9.30;;;10.80;99.90;;;;;;5009286;28;20054;-64
2023/02/21 15:10:51;;;;;;;;;;;10.80;99.90;;;;;;5022699;28;20597;-64
2023/02/21 15:13:35;;;;;;;18.95;9.25;;;10.80;99.90;;;;;;5010581;28;20338;-68
2023/02/21 15:16:04;;;;;;;19.20;9.13;;;10.70;99.90;;;;;;5004290;28;20060;-74
2023/02/21 15:18:38;;;;;;;24.30;10.27;;;10.80;99.90;;;;;;5011229;28;20053;-64
2023/02/21 15:21:10;;;;;;;25.77;10.65;;;10.70;99.90;;;;;;5012419;28;20045;-64
2023/02/21 15:23:37;;;;;;;20.30;9.77;;;10.80;99.90;;;;;;5013906;28;20045;-71